Time;durP1;ratioP1;P1;durP2;ratioP2;P2;SDS_P1;SDS_P2;PMS_P1;PMS_P2;Temp;Humidity;BMP_temperature;BMP_pressure;BME280_temperature;BME280_humidity;BME280_pressure;Samples;Min_cycle;Max_cycle;Signal;HPM_P1;HPM_P2
2023/06/14 00:00:19;;;;;;;;;;;;;;;21.46;72.21;100648.53;4998248;28;20666;-85
2023/06/14 00:02:55;;;;;;;;;;;;;;;21.48;72.31;100648.31;4990037;28;19929;-83
2023/06/14 00:05:23;;;;;;;;;;;;;;;21.46;71.95;100645.81;5019591;28;20046;-85
2023/06/14 00:07:53;;;;;;;;;;;;;;;21.46;71.53;100645.00;5018302;28;19924;-85
2023/06/14 00:10:20;;;;;;;;;;;;;;;21.52;70.46;100634.19;5018343;28;20098;-84
2023/06/14 00:12:46;;;;;;;;;;;;;;;21.63;69.32;100624.63;5018745;28;19933;-84
2023/06/14 00:15:13;;;;;;;;;;;;;;;21.62;68.81;100628.34;5016798;28;20758;-85
2023/06/14 00:17:44;;;;;;;;;;;;;;;21.63;68.88;100629.22;5002354;28;19939;-83
2023/06/14 00:20:14;;;;;;;;;;;;;;;21.20;69.45;100589.91;4958574;28;20277;-83
2023/06/14 00:22:50;;;;;;;;;;;;;;;21.44;69.36;100644.38;4965581;28;19975;-84
2023/06/14 00:25:18;;;;;;;;;;;;;;;21.40;69.58;100643.94;4966751;28;20729;-84
2023/06/14 00:27:57;;;;;;;;;;;;;;;21.39;69.30;100642.28;4978193;28;19925;-84
2023/06/14 00:30:25;;;;;;;;;;;;;;;21.41;69.16;100642.91;5017467;28;19993;-84
2023/06/14 00:32:51;;;;;;;;;;;;;;;21.35;69.82;100643.69;5017737;28;20278;-84
2023/06/14 00:35:19;;;;;;;;;;;;;;;21.31;69.99;100640.59;5021718;28;19951;-84
2023/06/14 00:37:46;;;;;;;;;;;;;;;21.35;69.49;100628.31;5016715;28;19924;-84
2023/06/14 00:40:13;;;;;;;;;;;;;;;21.37;69.84;100641.63;5017596;28;19989;-83
2023/06/14 00:42:40;;;;;;;;;;;;;;;21.39;69.59;100633.34;5023552;28;19928;-84
2023/06/14 00:45:07;;;;;;;;;;;;;;;21.40;69.29;100630.44;5018115;28;19931;-83
2023/06/14 00:47:38;;;;;;;;;;;;;;;21.42;69.78;100638.34;5017428;28;19948;-83
2023/06/14 00:50:08;;;;;;;;;;;;;;;21.43;69.75;100629.19;5016992;28;20037;-84
2023/06/14 00:52:36;;;;;;;;;;;;;;;21.33;69.89;100630.41;5016928;28;19928;-84
2023/06/14 00:55:02;;;;;;;;;;;;;;;21.31;69.99;100627.09;5023214;28;20196;-83
2023/06/14 00:57:29;;;;;;;;;;;;;;;21.33;69.40;100629.56;5016737;28;19924;-83
2023/06/14 00:59:56;;;;;;;;;;;;;;;21.27;68.98;100622.31;5017343;28;20543;-84
2023/06/14 01:02:26;;;;;;;;;;;;;;;21.25;68.78;100610.88;5019220;28;20384;-84
2023/06/14 01:04:52;;;;;;;;;;;;;;;21.20;68.98;100614.19;5015305;28;19929;-83
2023/06/14 01:07:24;;;;;;;;;;;;;;;20.91;69.51;100561.44;5012781;28;20152;-84
2023/06/14 01:09:51;;;;;;;;;;;;;;;21.18;70.35;100610.03;5021783;28;19925;-84
2023/06/14 01:12:20;;;;;;;;;;;;;;;21.12;70.25;100603.59;5014814;28;19959;-84
2023/06/14 01:14:48;;;;;;;;;;;;;;;21.13;70.12;100603.38;5013005;28;19932;-84
2023/06/14 01:17:16;;;;;;;;;;;;;;;21.11;70.49;100604.63;5014932;28;19925;-85
2023/06/14 01:19:44;;;;;;;;;;;;;;;21.07;70.58;100608.78;4974503;28;20454;-83
2023/06/14 01:22:13;;;;;;;;;;;;;;;21.03;71.03;100596.75;4957132;28;20333;-86
2023/06/14 01:24:44;;;;;;;;;;;;;;;20.63;71.30;100554.31;5013232;28;20193;-83
2023/06/14 01:27:13;;;;;;;;;;;;;;;20.91;71.67;100599.19;5014996;28;20537;-83
2023/06/14 01:29:45;;;;;;;;;;;;;;;20.88;71.88;100605.00;4988396;28;19935;-82
2023/06/14 01:32:15;;;;;;;;;;;;;;;20.86;71.74;100609.78;5001683;28;20019;-84
2023/06/14 01:34:44;;;;;;;;;;;;;;;20.89;71.29;100598.56;4998177;28;20010;-82
2023/06/14 01:37:12;;;;;;;;;;;;;;;20.89;71.03;100596.69;5013267;28;20028;-82
2023/06/14 01:39:39;;;;;;;;;;;;;;;20.86;71.24;100593.59;4991588;28;20432;-83
2023/06/14 01:42:06;;;;;;;;;;;;;;;20.88;71.15;100591.53;4965322;28;20198;-85
2023/06/14 01:44:33;;;;;;;;;;;;;;;20.87;71.44;100597.94;5007123;28;20027;-83
2023/06/14 01:47:03;;;;;;;;;;;;;;;20.86;71.44;100590.91;5014224;28;20497;-84
2023/06/14 01:49:34;;;;;;;;;;;;;;;20.87;70.88;100587.16;5014597;28;19924;-83
2023/06/14 01:52:01;;;;;;;;;;;;;;;20.86;71.29;100591.72;5013847;28;20416;-83
2023/06/14 01:54:29;;;;;;;;;;;;;;;20.83;71.35;100588.63;5020566;28;19925;-83
2023/06/14 01:56:57;;;;;;;;;;;;;;;20.82;71.13;100595.03;5017064;28;19990;-84
2023/06/14 01:59:23;;;;;;;;;;;;;;;20.76;71.36;100590.47;5012595;28;19925;-84
2023/06/14 02:01:50;;;;;;;;;;;;;;;20.73;71.60;100590.84;5011701;28;20367;-85
2023/06/14 02:04:17;;;;;;;;;;;;;;;20.81;70.78;100587.97;5019040;28;20315;-84
2023/06/14 02:06:43;;;;;;;;;;;;;;;20.80;71.15;100576.38;5008978;28;19931;-85
2023/06/14 02:09:13;;;;;;;;;;;;;;;20.79;71.39;100579.25;5011659;28;20382;-87
2023/06/14 02:11:49;;;;;;;;;;;;;;;20.45;71.19;100530.56;5010776;28;20447;-84
2023/06/14 02:14:27;;;;;;;;;;;;;;;20.75;70.96;100578.00;5001356;28;20083;-84
2023/06/14 02:16:56;;;;;;;;;;;;;;;20.73;70.71;100575.50;4967197;28;20010;-83
2023/06/14 02:19:23;;;;;;;;;;;;;;;20.69;70.59;100580.47;4978057;28;20882;-84
2023/06/14 02:21:50;;;;;;;;;;;;;;;20.42;70.75;100535.56;4987916;28;19932;-84
2023/06/14 02:24:17;;;;;;;;;;;;;;;20.84;70.06;100584.88;4988647;28;20020;-83
2023/06/14 02:26:44;;;;;;;;;;;;;;;20.84;70.27;100579.47;4997669;28;20684;-82
2023/06/14 02:29:14;;;;;;;;;;;;;;;20.60;70.24;100560.09;4986306;28;19925;-84
2023/06/14 02:31:41;;;;;;;;;;;;;;;20.73;70.32;100578.22;4983125;28;19933;-83
2023/06/14 02:34:08;;;;;;;;;;;;;;;20.40;70.45;100526.84;4972130;28;20358;-83
2023/06/14 02:36:41;;;;;;;;;;;;;;;20.55;70.33;100556.34;4984476;28;20478;-83
2023/06/14 02:39:11;;;;;;;;;;;;;;;20.65;70.55;100576.50;4979865;28;20298;-83
2023/06/14 02:41:38;;;;;;;;;;;;;;;20.61;70.54;100571.75;4967676;28;20583;-83
2023/06/14 02:44:08;;;;;;;;;;;;;;;20.65;70.46;100579.19;4962211;28;19925;-84
2023/06/14 02:46:41;;;;;;;;;;;;;;;20.69;70.36;100583.16;4956793;28;20767;-83
2023/06/14 02:49:14;;;;;;;;;;;;;;;20.73;70.36;100580.06;4957932;28;19993;-83
2023/06/14 02:51:48;;;;;;;;;;;;;;;20.38;70.48;100539.69;4998267;28;20155;-83
2023/06/14 02:54:21;;;;;;;;;;;;;;;20.66;70.66;100580.06;4987180;28;19925;-83
2023/06/14 02:56:48;;;;;;;;;;;;;;;20.64;70.74;100582.13;4988155;28;20286;-85
2023/06/14 02:59:21;;;;;;;;;;;;;;;20.63;70.71;100581.31;4978741;28;19932;-82
2023/06/14 03:02:03;;;;;;;;;;;;;;;20.59;70.56;100584.59;4988069;28;20137;-81
2023/06/14 03:04:34;;;;;;;;;;;;;;;20.61;70.85;100583.38;5033905;28;19929;-82
2023/06/14 03:07:13;;;;;;;;;;;;;;;20.62;71.02;100585.00;4997550;28;20006;-83
2023/06/14 03:09:40;;;;;;;;;;;;;;;20.59;71.02;100576.50;5001942;28;20448;-84
2023/06/14 03:12:07;;;;;;;;;;;;;;;20.54;71.31;100573.56;5016502;28;19924;-84
2023/06/14 03:14:34;;;;;;;;;;;;;;;20.55;71.44;100578.75;5002500;28;20122;-84
2023/06/14 03:17:02;;;;;;;;;;;;;;;20.59;71.30;100571.94;5006151;28;19932;-84
2023/06/14 03:19:29;;;;;;;;;;;;;;;20.56;71.52;100575.06;5006885;28;19929;-85
2023/06/14 03:22:00;;;;;;;;;;;;;;;20.51;71.92;100572.09;4989866;28;20233;-83
2023/06/14 03:24:36;;;;;;;;;;;;;;;20.27;71.91;100527.63;4984267;28;20237;-83
2023/06/14 03:27:10;;;;;;;;;;;;;;;20.49;72.22;100569.59;4967623;28;19925;-83
2023/06/14 03:29:41;;;;;;;;;;;;;;;20.48;71.96;100570.63;4977743;28;20004;-83
2023/06/14 03:32:14;;;;;;;;;;;;;;;20.18;72.08;100508.09;4976901;28;20395;-84
2023/06/14 03:34:50;;;;;;;;;;;;;;;20.45;72.48;100562.94;4954426;28;19933;-82
2023/06/14 03:37:20;;;;;;;;;;;;;;;20.44;72.23;100568.56;4984278;28;19998;-84
2023/06/14 03:39:49;;;;;;;;;;;;;;;20.36;72.51;100576.78;4970000;28;20702;-84
2023/06/14 03:42:16;;;;;;;;;;;;;;;20.02;72.92;100535.38;4973264;28;20346;-83
2023/06/14 03:44:42;;;;;;;;;;;;;;;20.33;73.01;100574.50;4979263;28;19929;-82
2023/06/14 03:47:09;;;;;;;;;;;;;;;20.33;73.05;100586.13;4991725;28;19964;-83
2023/06/14 03:49:36;;;;;;;;;;;;;;;20.31;73.33;100581.97;5014733;28;19925;-82
2023/06/14 03:52:03;;;;;;;;;;;;;;;20.27;73.34;100587.75;5005096;28;19948;-82
2023/06/14 03:54:32;;;;;;;;;;;;;;;20.26;73.59;100588.78;5007946;28;20023;-83
2023/06/14 03:57:19;;;;;;;;;;;;;;;20.29;73.54;100587.53;5005120;28;20378;-84
2023/06/14 03:59:46;;;;;;;;;;;;;;;20.31;73.21;100592.75;4982558;28;20192;-84
2023/06/14 04:02:17;;;;;;;;;;;;;;;20.34;72.90;100597.72;4969501;28;20111;-83
2023/06/14 04:04:51;;;;;;;;;;;;;;;20.33;72.80;100588.81;4981892;28;19932;-83
2023/06/14 04:07:19;;;;;;;;;;;;;;;20.41;72.69;100595.91;4979411;28;19935;-83
2023/06/14 04:09:48;;;;;;;;;;;;;;;20.50;72.04;100592.81;4972601;28;20409;-83
2023/06/14 04:12:17;;;;;;;;;;;;;;;20.22;72.16;100549.81;4958870;28;20278;-84
2023/06/14 04:14:46;;;;;;;;;;;;;;;20.51;72.26;100601.75;4993191;28;19956;-82
2023/06/14 04:17:13;;;;;;;;;;;;;;;20.50;71.83;100595.50;5007703;28;20218;-83
2023/06/14 04:19:40;;;;;;;;;;;;;;;20.62;71.13;100595.81;4994696;28;19998;-84
2023/06/14 04:22:07;;;;;;;;;;;;;;;20.64;70.61;100598.31;5014337;28;19950;-83
2023/06/14 04:24:36;;;;;;;;;;;;;;;20.62;70.70;100609.28;5002346;28;19974;-82
2023/06/14 04:27:06;;;;;;;;;;;;;;;20.65;70.89;100610.75;4984085;28;20152;-83
2023/06/14 04:29:44;;;;;;;;;;;;;;;20.64;70.66;100604.53;4966497;28;19965;-84
2023/06/14 04:32:21;;;;;;;;;;;;;;;20.65;70.38;100611.56;4957736;28;19932;-83
2023/06/14 04:35:01;;;;;;;;;;;;;;;20.67;70.98;100623.00;4971600;28;20713;-83
2023/06/14 04:37:30;;;;;;;;;;;;;;;20.78;70.53;100618.03;5014130;28;20289;-81
2023/06/14 04:39:56;;;;;;;;;;;;;;;20.86;70.60;100625.97;4995728;28;20225;-82
2023/06/14 04:42:30;;;;;;;;;;;;;;;20.91;70.15;100620.78;5003759;28;19929;-82
2023/06/14 04:44:57;;;;;;;;;;;;;;;20.96;70.01;100626.41;5012797;28;19928;-84
2023/06/14 04:47:29;;;;;;;;;;;;;;;20.98;70.31;100618.94;5013080;28;20124;-84
2023/06/14 04:50:00;;;;;;;;;;;;;;;20.97;70.12;100620.00;5015788;28;20072;-83
2023/06/14 04:52:29;;;;;;;;;;;;;;;20.98;70.25;100620.81;4988418;28;19951;-84
2023/06/14 04:54:56;;;;;;;;;;;;;;;20.99;70.06;100636.78;5015554;28;20393;-83
2023/06/14 04:57:25;;;;;;;;;;;;;;;21.00;70.14;100637.63;5003791;28;19939;-83
2023/06/14 04:59:55;;;;;;;;;;;;;;;21.02;70.08;100633.69;4991595;28;20019;-84
2023/06/14 05:02:23;;;;;;;;;;;;;;;21.03;70.82;100646.16;4988077;28;20482;-83
2023/06/14 05:04:50;;;;;;;;;;;;;;;21.07;70.52;100636.63;4993640;28;19925;-83
2023/06/14 05:07:23;;;;;;;;;;;;;;;21.13;70.16;100640.34;4999544;28;19999;-83
2023/06/14 05:10:01;;;;;;;;;;;;;;;21.22;69.62;100644.53;4977226;28;20293;-84
2023/06/14 05:12:34;;;;;;;;;;;;;;;21.27;68.91;100636.63;4969086;28;20417;-84
2023/06/14 05:15:03;;;;;;;;;;;;;;;20.89;68.04;100567.00;4994127;28;20341;-82
2023/06/14 05:17:29;;;;;;;;;;;;;;;21.46;67.93;100640.44;4988011;28;20015;-83
2023/06/14 05:19:56;;;;;;;;;;;;;;;21.52;68.54;100628.78;5009079;28;20401;-82
2023/06/14 05:22:23;;;;;;;;;;;;;;;21.64;67.98;100637.09;5002150;28;19925;-81
2023/06/14 05:24:50;;;;;;;;;;;;;;;21.76;67.04;100640.00;5001566;28;19931;-82
2023/06/14 05:27:18;;;;;;;;;;;;;;;21.85;66.50;100646.03;4993426;28;19925;-83
2023/06/14 05:29:45;;;;;;;;;;;;;;;21.94;65.55;100642.03;4988178;28;20379;-82
2023/06/14 05:32:11;;;;;;;;;;;;;;;21.92;65.92;100639.56;4980247;28;19929;-83
2023/06/14 05:34:39;;;;;;;;;;;;;;;21.96;66.08;100632.69;5006315;28;19932;-83
2023/06/14 05:37:07;;;;;;;;;;;;;;;21.95;65.65;100638.31;5019689;28;19928;-82
2023/06/14 05:39:34;;;;;;;;;;;;;;;21.79;65.11;100582.00;5016833;28;20428;-83
2023/06/14 05:42:01;;;;;;;;;;;;;;;22.03;65.81;100637.25;5020283;28;19932;-81
2023/06/14 05:44:28;;;;;;;;;;;;;;;22.05;65.23;100635.19;5006406;28;19929;-85
2023/06/14 05:46:54;;;;;;;;;;;;;;;22.06;65.25;100634.13;4979031;28;20194;-82
2023/06/14 05:49:22;;;;;;;;;;;;;;;21.84;65.51;100585.72;5000392;28;19940;-82
2023/06/14 05:51:49;;;;;;;;;;;;;;;22.14;64.87;100636.63;5021908;28;19936;-81
2023/06/14 05:54:23;;;;;;;;;;;;;;;22.18;64.75;100643.25;5019756;28;19983;-81
2023/06/14 05:56:50;;;;;;;;;;;;;;;22.18;64.75;100633.25;5008927;28;19936;-82
2023/06/14 05:59:17;;;;;;;;;;;;;;;22.22;63.83;100630.19;5017310;28;19955;-82
2023/06/14 06:01:43;;;;;;;;;;;;;;;22.13;65.06;100626.84;5008362;28;20014;-81
2023/06/14 06:04:10;;;;;;;;;;;;;;;22.26;64.27;100634.97;5019612;28;20181;-82
2023/06/14 06:06:37;;;;;;;;;;;;;;;22.22;64.69;100628.31;5014523;28;19925;-82
2023/06/14 06:09:04;;;;;;;;;;;;;;;22.18;64.43;100637.84;5016446;28;19925;-83
2023/06/14 06:11:31;;;;;;;;;;;;;;;22.28;64.28;100632.88;5017732;28;20452;-83
2023/06/14 06:14:14;;;;;;;;;;;;;;;22.26;63.94;100634.97;5022972;28;20291;-83
2023/06/14 06:16:41;;;;;;;;;;;;;;;22.26;64.54;100637.66;5011907;28;20131;-83
2023/06/14 06:19:08;;;;;;;;;;;;;;;22.30;64.02;100633.47;5015536;28;19971;-82
2023/06/14 06:21:35;;;;;;;;;;;;;;;22.38;64.48;100638.66;4962281;28;19924;-83
2023/06/14 06:24:03;;;;;;;;;;;;;;;22.48;63.91;100643.63;5003111;28;19929;-82
2023/06/14 06:26:31;;;;;;;;;;;;;;;22.58;64.03;100632.34;5004287;28;20254;-83
2023/06/14 06:28:59;;;;;;;;;;;;;;;22.70;63.37;100636.03;5020055;28;20339;-83
2023/06/14 06:31:27;;;;;;;;;;;;;;;22.74;63.04;100637.25;5015715;28;20036;-82
2023/06/14 06:33:54;;;;;;;;;;;;;;;22.87;62.15;100633.66;4991990;28;20267;-83
2023/06/14 06:36:21;;;;;;;;;;;;;;;22.93;62.06;100638.19;5018863;28;19932;-82
2023/06/14 06:38:50;;;;;;;;;;;;;;;22.95;60.50;100638.81;5011963;28;19924;-82
2023/06/14 06:41:20;;;;;;;;;;;;;;;22.98;60.96;100637.56;5006889;28;19925;-82
2023/06/14 06:43:50;;;;;;;;;;;;;;;23.02;62.02;100639.63;5001273;28;19951;-83
2023/06/14 06:46:18;;;;;;;;;;;;;;;23.09;61.52;100645.00;5022748;28;20378;-83
2023/06/14 06:48:45;;;;;;;;;;;;;;;23.12;61.75;100649.16;5011696;28;20232;-84
2023/06/14 06:51:18;;;;;;;;;;;;;;;23.29;61.10;100644.06;4999485;28;20145;-82
2023/06/14 06:53:55;;;;;;;;;;;;;;;23.32;61.76;100646.31;5038002;28;19932;-83
2023/06/14 06:56:24;;;;;;;;;;;;;;;23.41;61.06;100653.13;5018163;28;19928;-82
2023/06/14 06:58:51;;;;;;;;;;;;;;;23.36;59.93;100658.38;5038447;28;19928;-85
2023/06/14 07:01:19;;;;;;;;;;;;;;;23.36;60.11;100655.66;5018277;28;20178;-83
2023/06/14 07:03:46;;;;;;;;;;;;;;;23.35;59.99;100664.81;4999178;28;20358;-82
2023/06/14 07:06:17;;;;;;;;;;;;;;;23.32;61.02;100660.69;5024866;28;20724;-83
2023/06/14 07:08:54;;;;;;;;;;;;;;;23.47;61.27;100660.34;5008010;28;19925;-82
2023/06/14 07:11:21;;;;;;;;;;;;;;;23.45;61.82;100666.00;5010130;28;20384;-83
2023/06/14 07:13:50;;;;;;;;;;;;;;;23.34;62.99;100671.31;4987326;28;19929;-83
2023/06/14 07:16:21;;;;;;;;;;;;;;;23.28;63.09;100672.16;4985934;28;20437;-82
2023/06/14 07:18:48;;;;;;;;;;;;;;;23.27;63.15;100667.81;4991829;28;19971;-82
2023/06/14 07:21:17;;;;;;;;;;;;;;;23.28;63.55;100664.91;5009762;28;19935;-80
2023/06/14 07:23:45;;;;;;;;;;;;;;;;;;5002072;28;20312;-81
2023/06/14 07:26:19;;;;;;;;;;;;;;;23.36;63.66;100677.34;5017096;28;20300;-81
2023/06/14 07:28:47;;;;;;;;;;;;;;;23.43;64.33;100675.41;5004602;28;20091;-81
2023/06/14 07:31:15;;;;;;;;;;;;;;;23.52;64.68;100675.97;4996747;28;20418;-81
2023/06/14 07:33:43;;;;;;;;;;;;;;;23.60;63.93;100678.41;5019562;28;19924;-83
2023/06/14 07:36:09;;;;;;;;;;;;;;;23.61;64.08;100674.63;5017546;28;19925;-82
2023/06/14 07:38:36;;;;;;;;;;;;;;;23.66;63.32;100677.50;5016263;28;20120;-83
2023/06/14 07:41:07;;;;;;;;;;;;;;;23.70;64.16;100680.63;5008865;28;20448;-83
2023/06/14 07:43:35;;;;;;;;;;;;;;;23.79;63.94;100682.06;5021035;28;19925;-84
2023/06/14 07:46:06;;;;;;;;;;;;;;;23.83;62.66;100684.06;5026751;28;20392;-84
2023/06/14 07:48:34;;;;;;;;;;;;;;;23.92;62.85;100691.94;5008920;28;19983;-83
2023/06/14 07:51:01;;;;;;;;;;;;;;;23.94;62.74;100693.38;5016838;28;19991;-82
2023/06/14 07:53:28;;;;;;;;;;;;;;;24.03;62.45;100694.75;4988633;28;19986;-83
2023/06/14 07:55:56;;;;;;;;;;;;;;;24.09;62.57;100693.84;5016536;28;19990;-82
2023/06/14 07:58:23;;;;;;;;;;;;;;;24.21;62.20;100693.94;5010643;28;19968;-82
2023/06/14 08:00:53;;;;;;;;;;;;;;;24.26;61.88;100690.56;4999428;28;19936;-85
2023/06/14 08:03:20;;;;;;;;;;;;;;;24.27;62.17;100686.78;5005470;28;20142;-83
2023/06/14 08:05:49;;;;;;;;;;;;;;;24.35;61.82;100689.22;5006070;28;19929;-83
2023/06/14 08:08:21;;;;;;;;;;;;;;;24.35;60.90;100686.50;5015682;28;20290;-82
2023/06/14 08:10:51;;;;;;;;;;;;;;;24.29;61.51;100688.22;5008359;28;20153;-82
2023/06/14 08:13:24;;;;;;;;;;;;;;;24.36;61.07;100685.44;5022939;28;20004;-82
2023/06/14 08:15:57;;;;;;;;;;;;;;;24.35;61.28;100686.50;5032586;28;20172;-83
2023/06/14 08:18:23;;;;;;;;;;;;;;;24.35;61.56;100696.53;5013967;28;20024;-83
2023/06/14 08:20:54;;;;;;;;;;;;;;;24.42;61.35;100686.41;5000928;28;20218;-83
2023/06/14 08:23:21;;;;;;;;;;;;;;;24.50;61.71;100692.41;5008791;28;19932;-83
2023/06/14 08:25:52;;;;;;;;;;;;;;;23.88;61.45;100602.94;5002288;28;19951;-83
2023/06/14 08:28:25;;;;;;;;;;;;;;;24.51;61.86;100693.22;5016514;28;20146;-83
2023/06/14 08:30:52;;;;;;;;;;;;;;;24.70;61.91;100696.78;5018776;28;19932;-83
2023/06/14 08:33:19;;;;;;;;;;;;;;;24.87;61.73;100695.09;5014566;28;19936;-83
2023/06/14 08:35:45;;;;;;;;;;;;;;;24.98;61.42;100695.38;5019013;28;19970;-84
2023/06/14 08:38:13;;;;;;;;;;;;;;;25.03;60.21;100696.34;5019790;28;19979;-82
2023/06/14 08:40:42;;;;;;;;;;;;;;;25.07;59.07;100699.41;5022166;28;20298;-83
2023/06/14 08:43:12;;;;;;;;;;;;;;;24.91;58.24;100663.72;5017151;28;19924;-84
2023/06/14 08:45:42;;;;;;;;;;;;;;;25.16;59.08;100696.16;5010225;28;19928;-82
2023/06/14 08:48:11;;;;;;;;;;;;;;;25.15;59.52;100699.13;5020606;28;20140;-84
2023/06/14 08:50:41;;;;;;;;;;;;;;;25.14;59.64;100697.44;5018521;28;19936;-83
2023/06/14 08:53:11;;;;;;;;;;;;;;;25.09;59.27;100702.75;5019737;28;19925;-83
2023/06/14 08:55:39;;;;;;;;;;;;;;;25.10;60.10;100705.25;5015948;28;20027;-83
2023/06/14 08:58:14;;;;;;;;;;;;;;;25.19;59.56;100697.59;5022339;28;20266;-83
2023/06/14 09:00:42;;;;;;;;;;;;;;;25.43;58.73;100703.94;5010763;28;19959;-82
2023/06/14 09:03:13;;;;;;;;;;;;;;;25.37;58.55;100708.44;5014387;28;20274;-81
2023/06/14 09:05:47;;;;;;;;;;;;;;;25.35;57.27;100702.41;5019759;28;19925;-83
2023/06/14 09:08:14;;;;;;;;;;;;;;;25.33;57.82;100701.78;5023705;28;20330;-84
2023/06/14 09:10:41;;;;;;;;;;;;;;;25.28;56.33;100701.66;5014819;28;19925;-84
2023/06/14 09:13:08;;;;;;;;;;;;;;;25.26;54.81;100708.38;5010233;28;20620;-84
2023/06/14 09:15:35;;;;;;;;;;;;;;;25.29;54.72;100708.78;5015278;28;20217;-83
2023/06/14 09:18:05;;;;;;;;;;;;;;;25.16;56.95;100670.88;5026251;28;20406;-82
2023/06/14 09:20:33;;;;;;;;;;;;;;;25.38;56.82;100710.06;5018289;28;19928;-84
2023/06/14 09:23:00;;;;;;;;;;;;;;;25.41;55.32;100705.25;5023160;28;19925;-75
2023/06/14 09:25:27;;;;;;;;;;;;;;;25.59;54.97;100697.03;4980890;28;19924;-84
2023/06/14 09:28:09;;;;;;;;;;;;;;;25.84;55.15;100704.16;5008938;28;19932;-84
2023/06/14 09:30:39;;;;;;;;;;;;;;;25.75;55.69;100701.78;5018250;28;19983;-83
2023/06/14 09:33:10;;;;;;;;;;;;;;;25.47;53.58;100634.50;5011861;28;19932;-83
2023/06/14 09:35:41;;;;;;;;;;;;;;;25.64;54.91;100701.75;5014729;28;19928;-84
2023/06/14 09:38:07;;;;;;;;;;;;;;;25.54;54.61;100694.19;5025888;28;19925;-84
2023/06/14 09:40:35;;;;;;;;;;;;;;;25.58;54.98;100696.22;5004947;28;19931;-81
2023/06/14 09:43:09;;;;;;;;;;;;;;;25.56;54.74;100697.50;5016787;28;19990;-83
2023/06/14 09:45:45;;;;;;;;;;;;;;;25.79;55.32;100694.81;5003222;28;20363;-82
2023/06/14 09:48:19;;;;;;;;;;;;;;;25.52;56.61;100667.22;5016246;28;20063;-83
2023/06/14 09:50:55;;;;;;;;;;;;;;;25.35;55.74;100653.50;4999929;28;19990;-82
2023/06/14 09:53:23;;;;;;;;;;;;;;;25.34;56.29;100657.28;5013932;28;19924;-84
2023/06/14 09:55:52;;;;;;;;;;;;;;;25.75;57.07;100701.78;5007079;28;19935;-85
2023/06/14 09:58:20;;;;;;;;;;;;;;;25.90;56.52;100703.22;5012947;28;20142;-84
2023/06/14 10:00:51;;;;;;;;;;;;;;;25.85;55.19;100671.28;5005054;28;20054;-85
2023/06/14 10:03:21;;;;;;;;;;;;;;;26.11;55.22;100702.66;5031511;28;19935;-84
2023/06/14 10:05:50;;;;;;;;;;;;;;;25.74;53.55;100656.63;5019538;28;19924;-84
2023/06/14 10:08:19;;;;;;;;;;;;;;;26.00;54.42;100703.50;5019927;28;19928;-83
2023/06/14 10:10:48;;;;;;;;;;;;;;;26.07;54.25;100693.31;5025396;28;20275;-83
2023/06/14 10:13:19;;;;;;;;;;;;;;;25.97;53.61;100688.47;5012382;28;19928;-84
2023/06/14 10:16:06;;;;;;;;;;;;;;;26.00;53.55;100692.63;4992535;28;19932;-84
2023/06/14 10:18:38;;;;;;;;;;;;;;;26.19;52.65;100674.25;5005465;28;20290;-84
2023/06/14 10:21:18;;;;;;;;;;;;;;;26.37;52.79;100686.91;5009711;28;20009;-83
2023/06/14 10:23:48;;;;;;;;;;;;;;;26.46;50.79;100679.19;5001783;28;20297;-81
2023/06/14 10:26:22;;;;;;;;;;;;;;;26.41;51.69;100679.91;5009297;28;19932;-83
2023/06/14 10:29:08;;;;;;;;;;;;;;;26.52;51.83;100675.50;4990272;28;20286;-83
2023/06/14 10:31:46;;;;;;;;;;;;;;;26.41;51.41;100675.31;5023070;28;19952;-83
2023/06/14 10:34:23;;;;;;;;;;;;;;;26.52;51.74;100672.78;5018758;28;19925;-83
2023/06/14 10:50:14;;;;;;;7.47;6.07;;;;;;;26.36;56.74;100644.41;5080374;27;20512;-83
2023/06/14 10:52:45;;;;;;;7.50;6.47;;;;;;;26.00;57.64;100659.97;4994543;28;20061;-82
2023/06/14 10:55:14;;;;;;;6.03;5.10;;;;;;;25.28;57.73;100571.25;4990403;28;20488;-81
2023/06/14 10:57:50;;;;;;;9.25;6.22;;;;;;;24.93;57.93;100528.53;5008559;28;20084;-80
2023/06/14 11:00:25;;;;;;;9.00;6.68;;;;;;;25.57;58.25;100631.19;5018441;28;20042;-83
2023/06/14 11:03:13;;;;;;;10.23;6.95;;;;;;;25.67;56.93;100649.63;5002606;28;20561;-81
2023/06/14 11:05:52;;;;;;;11.27;8.57;;;;;;;25.42;56.25;100645.25;5001506;28;20425;-80
2023/06/14 11:08:50;;;;;;;9.32;7.32;;;;;;;25.37;57.25;100650.56;5001379;28;20241;-81
2023/06/14 11:11:35;;;;;;;8.63;7.03;;;;;;;25.31;58.94;100638.69;4950660;28;20424;-79
2023/06/14 11:14:03;;;;;;;9.35;7.45;;;;;;;25.38;59.32;100658.44;5001137;28;20042;-80
2023/06/14 11:16:33;;;;;;;8.85;7.78;;;;;;;25.34;58.78;100640.97;5022526;28;20068;-82
2023/06/14 11:19:05;;;;;;;8.20;7.03;;;;;;;25.45;59.02;100644.75;4994019;28;20068;-83
2023/06/14 11:21:40;;;;;;;12.80;7.75;;;;;;;24.33;57.97;100493.28;4913964;28;20307;-82
2023/06/14 11:24:11;;;;;;;11.02;8.02;;;;;;;25.25;58.71;100650.50;5004411;28;20058;-79
2023/06/14 11:26:40;;;;;;;8.30;7.40;;;;;;;25.09;59.38;100613.13;4983643;28;20104;-84
2023/06/14 11:29:20;;;;;;;10.30;8.23;;;;;;;25.31;58.38;100643.31;4983290;28;20054;-81
2023/06/14 11:31:52;;;;;;;10.88;8.73;;;;;;;25.14;57.21;100614.06;4993021;28;20137;-82
2023/06/14 11:34:19;;;;;;;11.80;7.90;;;;;;;25.10;58.23;100606.63;4959994;28;20054;-82
2023/06/14 11:36:48;;;;;;;12.07;7.78;;;;;;;25.37;56.46;100635.06;4973898;28;20093;-81
2023/06/14 11:39:17;;;;;;;10.63;7.47;;;;;;;24.71;58.17;100511.97;4975395;28;20271;-82
2023/06/14 11:41:45;;;;;;;10.00;7.57;;;;;;;25.30;58.88;100644.38;5001081;28;20190;-83
2023/06/14 11:44:12;;;;;;;8.43;7.35;;;;;;;24.72;59.70;100561.66;4965815;28;20290;-82
2023/06/14 11:46:39;;;;;;;8.75;7.78;;;;;;;25.00;60.34;100634.34;4975313;28;20375;-83
2023/06/14 11:49:08;;;;;;;10.32;7.13;;;;;;;25.06;60.63;100624.44;4972261;28;20254;-81
2023/06/14 11:51:36;;;;;;;12.98;8.30;;;;;;;25.16;60.17;100627.44;4955070;28;20724;-82
2023/06/14 11:54:05;;;;;;;15.90;9.82;;;;;;;24.99;59.26;100615.56;4961147;28;20260;-82
2023/06/14 11:56:32;;;;;;;12.38;8.18;;;;;;;24.67;59.61;100578.63;4963059;28;20051;-80
2023/06/14 11:59:00;;;;;;;9.40;7.32;;;;;;;24.91;60.30;100605.88;4979531;28;20084;-81
2023/06/14 12:01:27;;;;;;;10.32;8.02;;;;;;;25.02;60.55;100634.09;4964314;28;20058;-82
2023/06/14 12:03:54;;;;;;;10.15;8.52;;;;;;;24.16;60.24;100501.22;4991424;28;20413;-83
2023/06/14 12:06:32;;;;;;;11.10;9.60;;;;;;;25.10;59.94;100650.09;4998107;28;20046;-82
2023/06/14 12:09:03;;;;;;;12.18;9.88;;;;;;;24.84;60.79;100635.81;4960313;28;20050;-82
2023/06/14 12:11:38;;;;;;;9.57;7.85;;;;;;;24.69;61.99;100632.69;4998358;28;20498;-81
2023/06/14 12:14:05;;;;;;;9.13;8.13;;;;;;;24.74;62.10;100649.13;4961131;28;20047;-81
2023/06/14 12:16:35;;;;;;;20.48;11.00;;;;;;;24.45;61.76;100588.28;4964195;28;20081;-83
2023/06/14 12:19:14;;;;;;;12.23;10.23;;;;;;;24.75;62.22;100642.63;4963640;28;20124;-80
2023/06/14 12:21:43;;;;;;;15.15;10.05;;;;;;;24.67;62.45;100640.22;4958552;28;20042;-80
2023/06/14 12:24:12;;;;;;;12.55;10.13;;;;;;;24.72;62.93;100630.34;4984081;28;20097;-81
2023/06/14 12:26:41;;;;;;;11.00;9.27;;;;;;;24.09;62.85;100547.41;4958850;28;20149;-83
2023/06/14 12:29:13;;;;;;;12.88;10.23;;;;;;;24.62;63.18;100638.19;4948041;28;20046;-81
2023/06/14 12:31:40;;;;;;;12.20;10.05;;;;;;;24.34;63.43;100592.59;4964157;28;20051;-84
2023/06/14 12:34:07;;;;;;;16.92;11.55;;;;;;;24.32;63.16;100608.25;4954885;28;20051;-82
2023/06/14 12:36:39;;;;;;;14.38;10.63;;;;;;;24.47;63.48;100635.88;4969046;28;20530;-81
2023/06/14 12:39:08;;;;;;;11.23;9.98;;;;;;;24.49;63.27;100625.63;4969787;28;20054;-82
2023/06/14 12:41:36;;;;;;;12.57;9.52;;;;;;;24.50;62.75;100619.13;4955238;28;20047;-82
2023/06/14 12:44:06;;;;;;;11.18;10.07;;;;;;;24.43;62.52;100602.09;4951477;28;20264;-81
2023/06/14 12:46:34;;;;;;;11.65;9.23;;;;;;;24.52;61.40;100611.59;4934817;28;20235;-82
2023/06/14 12:49:01;;;;;;;12.60;9.70;;;;;;;24.51;61.75;100593.66;4956251;28;20224;-82